createdAt,value
2017-11-17T00:01:33.128Z,5.60
2017-11-17T00:04:04.599Z,5.60
2017-11-17T00:06:33.044Z,5.70
2017-11-17T00:09:01.467Z,5.70
2017-11-17T00:11:29.762Z,5.70
2017-11-17T00:13:57.950Z,5.70
2017-11-17T00:16:26.418Z,5.70
2017-11-17T00:18:54.790Z,5.70
2017-11-17T00:21:23.180Z,5.80
2017-11-17T00:23:51.418Z,5.70
2017-11-17T00:26:19.666Z,5.70
2017-11-17T00:28:48.623Z,5.70
2017-11-17T00:31:17.707Z,5.60
2017-11-17T00:33:45.901Z,5.60
2017-11-17T00:36:14.029Z,5.60
2017-11-17T00:38:42.185Z,5.70
2017-11-17T00:41:10.325Z,5.70
2017-11-17T00:43:38.480Z,5.70
2017-11-17T00:46:06.880Z,5.70
2017-11-17T00:48:35.257Z,5.70
2017-11-17T00:51:03.538Z,5.80
2017-11-17T00:53:34.533Z,5.80
2017-11-17T00:56:02.709Z,5.80
2017-11-17T00:58:30.897Z,5.90
2017-11-17T01:00:59.090Z,5.90
2017-11-17T01:03:27.458Z,5.90
2017-11-17T01:05:55.717Z,5.90
2017-11-17T01:08:24.056Z,5.90
2017-11-17T01:10:52.353Z,6.00
2017-11-17T01:13:20.638Z,6.00
2017-11-17T01:15:48.808Z,5.90
2017-11-17T01:18:16.972Z,6.00
2017-11-17T01:20:45.015Z,5.90
2017-11-17T01:23:13.401Z,5.90
2017-11-17T01:25:42.550Z,5.90
2017-11-17T01:28:10.803Z,5.90
2017-11-17T01:30:39.043Z,5.90
2017-11-17T01:33:07.241Z,5.90
2017-11-17T01:35:36.177Z,6.00
2017-11-17T01:38:04.354Z,6.00
2017-11-17T01:40:32.397Z,6.00
2017-11-17T01:43:00.524Z,6.00
2017-11-17T01:45:28.613Z,6.00
2017-11-17T01:47:56.748Z,6.00
2017-11-17T01:50:24.898Z,6.00
2017-11-17T01:52:53.128Z,6.00
2017-11-17T01:55:21.379Z,6.10
2017-11-17T01:57:49.650Z,6.00
2017-11-17T02:00:17.839Z,6.00
2017-11-17T02:02:46.095Z,5.90
2017-11-17T02:05:14.228Z,6.00
2017-11-17T02:07:42.294Z,6.00
2017-11-17T02:10:10.471Z,6.00
2017-11-17T02:12:38.555Z,6.00
2017-11-17T02:15:06.664Z,6.00
2017-11-17T02:17:34.719Z,6.00
2017-11-17T02:20:02.945Z,6.00
2017-11-17T02:22:31.307Z,6.00
2017-11-17T02:24:59.534Z,6.00
2017-11-17T02:27:27.797Z,6.00
2017-11-17T02:29:56.962Z,6.00
2017-11-17T02:32:25.097Z,6.00
2017-11-17T02:34:53.225Z,6.00
2017-11-17T02:37:21.322Z,5.90
2017-11-17T02:39:50.287Z,6.00
2017-11-17T02:42:18.617Z,6.00
2017-11-17T02:44:46.882Z,6.00
2017-11-17T02:47:15.078Z,6.00
2017-11-17T02:49:44.193Z,6.00
2017-11-17T02:52:12.544Z,6.00
2017-11-17T02:54:40.801Z,6.00
2017-11-17T02:57:08.965Z,6.00
2017-11-17T02:59:38.062Z,6.00
2017-11-17T03:02:07.042Z,6.00
2017-11-17T03:04:35.149Z,5.90
2017-11-17T03:07:04.264Z,6.00
2017-11-17T03:09:37.723Z,6.00
2017-11-17T03:12:10.688Z,6.00
2017-11-17T03:14:43.449Z,6.10
2017-11-17T03:17:14.317Z,6.10
2017-11-17T03:19:44.486Z,6.10
2017-11-17T03:22:14.579Z,6.20
2017-11-17T03:24:45.261Z,6.20
2017-11-17T03:27:15.275Z,6.20
2017-11-17T03:29:45.249Z,6.20
2017-11-17T03:32:14.908Z,6.30
2017-11-17T03:34:44.641Z,6.30
2017-11-17T03:37:15.178Z,6.30
2017-11-17T03:39:44.672Z,6.30
2017-11-17T03:42:14.304Z,6.30
2017-11-17T03:44:42.508Z,6.30
2017-11-17T03:47:10.649Z,6.30
2017-11-17T03:49:38.705Z,6.30
2017-11-17T03:52:08.882Z,6.20
2017-11-17T03:54:37.021Z,6.20
2017-11-17T03:57:05.343Z,6.20
2017-11-17T03:59:33.595Z,6.20
2017-11-17T04:02:01.724Z,6.10
2017-11-17T04:04:29.747Z,6.10
2017-11-17T04:06:57.860Z,6.10
2017-11-17T04:09:25.916Z,6.10
2017-11-17T04:11:54.052Z,6.10
2017-11-17T04:14:22.200Z,6.10
2017-11-17T04:16:50.341Z,6.10
2017-11-17T04:19:19.140Z,6.10
2017-11-17T04:21:47.254Z,6.10
2017-11-17T04:24:15.306Z,6.10
2017-11-17T04:26:43.462Z,6.10
2017-11-17T04:29:11.659Z,6.20
2017-11-17T04:31:39.804Z,6.20
2017-11-17T04:34:07.952Z,6.20
2017-11-17T04:36:36.781Z,6.20
2017-11-17T04:39:05.014Z,6.20
2017-11-17T04:41:33.172Z,6.20
2017-11-17T04:44:01.578Z,6.20
2017-11-17T04:46:29.667Z,6.20
2017-11-17T04:48:57.796Z,6.20
2017-11-17T04:51:25.893Z,6.10
2017-11-17T04:53:54.026Z,6.10
2017-11-17T04:56:22.096Z,6.10
2017-11-17T04:58:50.262Z,6.10
2017-11-17T05:01:18.298Z,6.10
2017-11-17T05:03:47.166Z,6.20
2017-11-17T05:06:15.216Z,6.10
2017-11-17T05:08:43.383Z,6.20
2017-11-17T05:11:11.448Z,6.20
2017-11-17T05:13:43.264Z,6.20
2017-11-17T05:16:11.770Z,6.20
2017-11-17T05:18:39.914Z,6.20
2017-11-17T05:21:08.031Z,6.20
2017-11-17T05:23:36.219Z,6.20
2017-11-17T05:26:04.260Z,6.20
2017-11-17T05:28:32.428Z,6.20
2017-11-17T05:31:00.540Z,6.30
2017-11-17T05:33:28.669Z,6.30
2017-11-17T05:35:56.917Z,6.20
2017-11-17T05:38:25.187Z,6.20
2017-11-17T05:40:54.386Z,6.20
2017-11-17T05:43:22.786Z,6.10
2017-11-17T05:45:50.919Z,6.20
2017-11-17T05:48:19.184Z,6.20
2017-11-17T05:50:47.356Z,6.20
2017-11-17T05:53:15.447Z,6.20
2017-11-17T05:55:43.648Z,6.20
2017-11-17T05:58:12.525Z,6.20
2017-11-17T06:00:40.811Z,6.10
2017-11-17T06:03:09.028Z,6.10
2017-11-17T06:05:37.115Z,6.20
2017-11-17T06:08:05.116Z,6.20
2017-11-17T06:10:33.161Z,6.20
2017-11-17T06:13:01.233Z,6.20
2017-11-17T06:15:30.001Z,6.20
2017-11-17T06:17:58.685Z,6.20
2017-11-17T06:20:26.660Z,6.20
2017-11-17T06:22:54.730Z,6.20
2017-11-17T06:25:22.764Z,6.20
2017-11-17T06:27:50.690Z,6.20
2017-11-17T06:30:18.651Z,6.30
2017-11-17T06:32:46.559Z,6.30
2017-11-17T06:35:14.536Z,6.30
2017-11-17T06:37:42.465Z,6.30
2017-11-17T06:40:11.205Z,6.30
2017-11-17T06:42:39.263Z,6.30
2017-11-17T06:45:07.223Z,6.40
2017-11-17T06:47:35.157Z,6.40
2017-11-17T06:50:03.105Z,6.40
2017-11-17T06:52:31.053Z,6.40
2017-11-17T06:54:58.968Z,6.40
2017-11-17T06:57:27.695Z,6.30
2017-11-17T06:59:55.626Z,6.30
2017-11-17T07:02:23.585Z,6.30
2017-11-17T07:04:51.507Z,6.30
2017-11-17T07:07:19.479Z,6.30
2017-11-17T07:09:47.406Z,6.30
2017-11-17T07:12:15.560Z,6.30
2017-11-17T07:14:43.480Z,6.20
2017-11-17T07:17:11.451Z,6.30
2017-11-17T07:19:39.367Z,6.20
2017-11-17T07:22:07.368Z,6.30
2017-11-17T07:24:35.284Z,6.30
2017-11-17T07:27:03.266Z,6.30
2017-11-17T07:29:31.215Z,6.30
2017-11-17T07:31:59.219Z,6.30
2017-11-17T07:34:27.182Z,6.20
2017-11-17T07:36:55.176Z,6.30
2017-11-17T07:39:23.115Z,6.30
2017-11-17T07:41:51.192Z,6.40
2017-11-17T07:44:19.128Z,6.40
2017-11-17T07:46:47.125Z,6.30
2017-11-17T07:49:15.086Z,6.40
2017-11-17T07:51:43.096Z,6.40
2017-11-17T07:54:11.057Z,6.50
2017-11-17T07:56:38.991Z,6.50
2017-11-17T07:59:06.982Z,6.60
2017-11-17T08:01:34.907Z,6.60
2017-11-17T08:04:16.004Z,6.70
2017-11-17T08:06:43.972Z,6.70
2017-11-17T08:09:11.972Z,6.70
2017-11-17T08:11:39.907Z,6.60
2017-11-17T08:14:08.670Z,6.70
2017-11-17T08:16:36.605Z,6.70
2017-11-17T08:19:04.593Z,6.70
2017-11-17T08:21:33.332Z,6.70
2017-11-17T08:24:01.337Z,6.60
2017-11-17T08:26:32.226Z,6.70
2017-11-17T08:29:00.186Z,6.70
2017-11-17T08:31:28.083Z,6.70
2017-11-17T08:33:56.042Z,6.70
2017-11-17T08:36:23.951Z,6.70
2017-11-17T08:38:51.899Z,6.70
2017-11-17T08:41:19.809Z,6.80
2017-11-17T08:43:47.787Z,6.90
2017-11-17T08:46:15.725Z,6.80
2017-11-17T08:48:43.718Z,6.90
2017-11-17T08:51:11.673Z,7.00
2017-11-17T08:53:39.783Z,7.00
2017-11-17T08:56:07.719Z,7.00
2017-11-17T08:58:35.664Z,7.00
2017-11-17T09:01:03.663Z,7.00
2017-11-17T09:03:31.588Z,7.10
2017-11-17T09:05:59.547Z,7.20
2017-11-17T09:08:27.462Z,7.20
2017-11-17T09:10:55.424Z,7.20
2017-11-17T09:13:23.331Z,7.20
2017-11-17T09:15:52.091Z,7.30
2017-11-17T09:18:20.013Z,7.30
2017-11-17T09:20:47.974Z,7.40
2017-11-17T09:23:19.601Z,7.50
2017-11-17T09:25:47.565Z,7.50
2017-11-17T09:28:15.484Z,7.50
2017-11-17T09:30:43.441Z,7.50
2017-11-17T09:33:11.378Z,7.50
2017-11-17T09:35:39.356Z,7.50
2017-11-17T09:38:08.031Z,7.50
2017-11-17T09:40:36.020Z,7.50
2017-11-17T09:43:03.951Z,7.60
2017-11-17T09:45:31.973Z,7.60
2017-11-17T09:47:59.915Z,7.50
2017-11-17T09:50:27.929Z,7.40
2017-11-17T09:52:55.990Z,7.50
2017-11-17T09:55:24.001Z,7.50
2017-11-17T09:57:51.939Z,7.50
2017-11-17T10:00:19.974Z,7.50
2017-11-17T10:02:47.962Z,7.60
2017-11-17T10:05:15.957Z,7.60
2017-11-17T10:07:43.875Z,7.60
2017-11-17T10:10:11.813Z,7.80
2017-11-17T10:12:39.834Z,8.10
2017-11-17T10:15:08.564Z,8.70
2017-11-17T10:17:36.573Z,8.70
2017-11-17T10:20:04.555Z,8.90
2017-11-17T10:22:32.838Z,9.20
2017-11-17T10:25:01.510Z,9.30
2017-11-17T10:27:29.511Z,9.20
2017-11-17T10:29:58.352Z,9.10
2017-11-17T10:32:26.308Z,9.10
2017-11-17T10:34:54.304Z,9.20
2017-11-17T10:37:22.298Z,9.10
2017-11-17T10:39:50.233Z,9.20
2017-11-17T10:42:18.612Z,9.00
2017-11-17T10:44:46.592Z,8.90
2017-11-17T10:47:14.582Z,8.70
2017-11-17T10:49:42.502Z,8.70
2017-11-17T10:52:10.650Z,8.70
2017-11-17T10:54:38.587Z,8.50
2017-11-17T10:57:09.411Z,8.50
2017-11-17T10:59:40.362Z,8.40
2017-11-17T11:02:08.298Z,8.40
2017-11-17T11:04:36.714Z,8.50
2017-11-17T11:07:04.686Z,8.60
2017-11-17T11:09:32.639Z,8.80
2017-11-17T11:12:00.754Z,9.00
2017-11-17T11:14:34.074Z,9.10
2017-11-17T11:17:02.050Z,9.10
2017-11-17T11:19:29.975Z,9.20
2017-11-17T11:21:57.970Z,9.50
2017-11-17T11:24:26.877Z,9.60
2017-11-17T11:26:54.773Z,9.80
2017-11-17T11:29:22.913Z,9.90
2017-11-17T11:31:50.824Z,9.90
2017-11-17T11:34:18.779Z,9.70
2017-11-17T11:36:46.754Z,9.50
2017-11-17T11:39:14.696Z,9.40
2017-11-17T11:41:42.615Z,9.60
2017-11-17T11:44:10.582Z,10.70
2017-11-17T11:46:38.486Z,11.70
2017-11-17T11:49:06.428Z,12.20
2017-11-17T11:51:36.124Z,11.80
2017-11-17T11:54:16.011Z,11.80
2017-11-17T11:56:44.494Z,11.40
2017-11-17T11:59:12.678Z,11.90
2017-11-17T12:01:41.426Z,14.40
2017-11-17T12:04:09.371Z,14.40
2017-11-17T12:06:37.567Z,15.10
2017-11-17T12:09:06.144Z,15.70
2017-11-17T12:11:34.086Z,16.20
2017-11-17T12:14:02.021Z,16.10
2017-11-17T12:16:29.946Z,16.00
2017-11-17T12:18:57.891Z,16.10
2017-11-17T12:21:26.589Z,16.90
2017-11-17T12:23:54.470Z,16.90
2017-11-17T12:26:22.413Z,17.20
2017-11-17T12:28:50.481Z,15.10
2017-11-17T12:31:18.405Z,13.90
2017-11-17T12:33:46.318Z,13.00
2017-11-17T12:36:14.242Z,12.70
2017-11-17T12:38:42.209Z,12.20
2017-11-17T12:41:10.176Z,11.70
2017-11-17T12:43:39.648Z,11.30
2017-11-17T12:46:07.635Z,11.50
2017-11-17T12:48:35.731Z,11.50
2017-11-17T12:51:03.839Z,11.40
2017-11-17T12:53:31.721Z,11.20
2017-11-17T12:56:00.143Z,11.70
2017-11-17T12:58:28.052Z,12.20
2017-11-17T13:00:56.027Z,13.00
2017-11-17T13:03:23.940Z,13.00
2017-11-17T13:05:51.883Z,12.90
2017-11-17T13:08:19.789Z,12.50
2017-11-17T13:10:47.725Z,12.10
2017-11-17T13:13:15.615Z,11.90
2017-11-17T13:15:43.565Z,11.70
2017-11-17T13:18:11.456Z,12.10
2017-11-17T13:20:39.393Z,12.70
2017-11-17T13:23:08.433Z,13.40
2017-11-17T13:25:36.385Z,13.90
2017-11-17T13:28:04.286Z,14.40
2017-11-17T13:30:32.238Z,13.70
2017-11-17T13:33:00.143Z,12.90
2017-11-17T13:35:28.810Z,11.90
2017-11-17T13:37:56.768Z,11.90
2017-11-17T13:40:24.674Z,11.50
2017-11-17T13:42:52.629Z,11.10
2017-11-17T13:45:20.566Z,10.60
2017-11-17T13:47:48.535Z,10.30
2017-11-17T13:50:16.444Z,10.00
2017-11-17T13:52:44.450Z,9.80
2017-11-17T13:55:12.371Z,9.60
2017-11-17T13:57:40.328Z,9.50
2017-11-17T14:00:08.275Z,9.50
2017-11-17T14:02:36.234Z,9.50
2017-11-17T14:05:04.164Z,9.40
2017-11-17T14:07:32.880Z,8.80
2017-11-17T14:10:00.782Z,8.70
2017-11-17T14:12:28.750Z,8.50
2017-11-17T14:14:56.642Z,8.40
2017-11-17T14:17:24.649Z,8.40
2017-11-17T14:19:52.567Z,8.30
2017-11-17T14:22:24.404Z,8.20
2017-11-17T14:24:52.359Z,8.10
2017-11-17T14:27:20.379Z,8.00
2017-11-17T14:29:48.264Z,7.90
2017-11-17T14:32:16.966Z,7.70
2017-11-17T14:34:44.881Z,7.70
2017-11-17T14:37:12.850Z,7.70
2017-11-17T14:39:40.796Z,7.60
2017-11-17T14:42:08.690Z,7.50
2017-11-17T14:44:36.612Z,7.50
2017-11-17T14:47:04.537Z,7.40
2017-11-17T14:49:32.499Z,7.30
2017-11-17T14:52:03.995Z,7.30
2017-11-17T14:54:31.966Z,7.20
2017-11-17T14:57:00.622Z,7.10
2017-11-17T14:59:28.558Z,7.10
2017-11-17T15:01:56.546Z,6.90
2017-11-17T15:04:24.491Z,6.90
2017-11-17T15:06:52.436Z,6.80
2017-11-17T15:09:21.169Z,6.90
2017-11-17T15:11:49.116Z,6.80
2017-11-17T15:14:17.030Z,6.80
2017-11-17T15:16:45.010Z,6.80
2017-11-17T15:19:13.012Z,6.70
2017-11-17T15:21:40.962Z,6.70
2017-11-17T15:24:08.981Z,6.70
2017-11-17T15:26:36.947Z,6.60
2017-11-17T15:29:04.978Z,6.60
2017-11-17T15:31:33.698Z,6.50
2017-11-17T15:34:01.745Z,6.50
2017-11-17T15:36:30.434Z,6.40
2017-11-17T15:38:58.406Z,6.40
2017-11-17T15:41:26.341Z,6.30
2017-11-17T15:43:54.535Z,6.20
2017-11-17T15:46:22.487Z,6.20
2017-11-17T15:48:50.432Z,6.10
2017-11-17T15:51:18.425Z,6.00
2017-11-17T15:53:46.349Z,5.90
2017-11-17T15:56:14.314Z,5.80
2017-11-17T15:58:42.288Z,5.70
2017-11-17T16:01:10.339Z,5.70
2017-11-17T16:03:39.092Z,5.50
2017-11-17T16:06:07.115Z,5.50
2017-11-17T16:08:35.050Z,5.40
2017-11-17T16:11:03.032Z,5.30
2017-11-17T16:13:31.006Z,5.20
2017-11-17T16:15:59.762Z,5.00
2017-11-17T16:18:27.698Z,5.00
2017-11-17T16:20:55.728Z,4.90
2017-11-17T16:23:23.692Z,4.80
2017-11-17T16:25:51.729Z,4.60
2017-11-17T16:28:19.687Z,4.60
2017-11-17T16:30:47.707Z,4.50
2017-11-17T16:33:20.293Z,4.40
2017-11-17T16:35:49.248Z,4.30
2017-11-17T16:38:17.150Z,4.30
2017-11-17T16:40:45.145Z,4.20
2017-11-17T16:43:13.045Z,4.10
2017-11-17T16:45:41.059Z,4.10
2017-11-17T16:48:08.981Z,4.00
2017-11-17T16:50:36.946Z,4.00
2017-11-17T16:53:05.395Z,3.90
2017-11-17T16:55:33.869Z,3.70
2017-11-17T16:58:01.862Z,3.60
2017-11-17T17:00:29.823Z,3.60
2017-11-17T17:02:58.951Z,3.50
2017-11-17T17:05:26.861Z,3.30
2017-11-17T17:07:54.932Z,3.30
2017-11-17T17:10:22.892Z,3.10
2017-11-17T17:12:50.884Z,3.00
2017-11-17T17:15:19.628Z,2.90
2017-11-17T17:17:47.583Z,2.90
2017-11-17T17:20:16.277Z,2.70
2017-11-17T17:22:48.210Z,2.70
2017-11-17T17:25:16.893Z,2.50
2017-11-17T17:27:44.867Z,2.50
2017-11-17T17:30:12.775Z,2.50
2017-11-17T17:32:41.486Z,2.50
2017-11-17T17:35:09.449Z,2.50
2017-11-17T17:37:37.429Z,2.40
2017-11-17T17:40:05.661Z,2.30
2017-11-17T17:42:33.624Z,2.30
2017-11-17T17:45:01.524Z,2.40
2017-11-17T17:47:30.091Z,2.30
2017-11-17T17:49:58.030Z,2.30
2017-11-17T17:52:27.732Z,2.30
2017-11-17T17:54:55.892Z,2.30
2017-11-17T17:57:23.895Z,2.20
2017-11-17T17:59:51.947Z,2.20
2017-11-17T18:02:20.768Z,2.30
2017-11-17T18:04:48.751Z,2.30
2017-11-17T18:07:16.665Z,2.20
2017-11-17T18:09:44.669Z,2.20
2017-11-17T18:12:12.596Z,2.20
2017-11-17T18:14:43.449Z,2.10
2017-11-17T18:17:11.434Z,1.70
2017-11-17T18:19:39.397Z,2.10
2017-11-17T18:22:12.022Z,1.80
2017-11-17T18:24:40.006Z,1.70
2017-11-17T18:27:07.943Z,1.70
2017-11-17T18:29:35.890Z,1.70
2017-11-17T18:32:04.566Z,1.70
2017-11-17T18:34:33.373Z,1.70
2017-11-17T18:37:01.292Z,1.70
2017-11-17T18:39:29.299Z,1.70
2017-11-17T18:41:57.221Z,1.70
2017-11-17T18:44:25.291Z,1.60
2017-11-17T18:46:53.192Z,1.60
2017-11-17T18:49:21.207Z,1.60
2017-11-17T18:51:49.096Z,1.50
2017-11-17T18:54:17.085Z,1.50
2017-11-17T18:56:45.802Z,1.50
2017-11-17T18:59:14.087Z,1.60
2017-11-17T19:01:42.800Z,1.60
2017-11-17T19:04:11.183Z,1.60
2017-11-17T19:06:39.074Z,1.70
2017-11-17T19:09:07.034Z,1.60
2017-11-17T19:11:35.127Z,1.50
2017-11-17T19:14:03.111Z,1.60
2017-11-17T19:16:31.063Z,1.60
2017-11-17T19:18:59.022Z,1.70
2017-11-17T19:21:27.205Z,1.80
2017-11-17T19:23:55.191Z,2.00
2017-11-17T19:26:23.087Z,2.00
2017-11-17T19:28:51.746Z,2.00
2017-11-17T19:31:19.696Z,2.00
2017-11-17T19:33:47.599Z,2.10
2017-11-17T19:36:15.529Z,2.20
2017-11-17T19:38:43.439Z,2.30
2017-11-17T19:41:11.388Z,2.40
2017-11-17T19:43:39.337Z,2.20
2017-11-17T19:46:07.288Z,2.10
2017-11-17T19:48:35.199Z,2.20
2017-11-17T19:51:03.152Z,2.30
2017-11-17T19:53:31.332Z,2.40
2017-11-17T19:55:59.386Z,2.40
2017-11-17T19:58:27.297Z,2.30
2017-11-17T20:00:55.235Z,2.40
2017-11-17T20:03:26.922Z,2.50
2017-11-17T20:05:54.888Z,2.50
2017-11-17T20:08:22.800Z,2.60
2017-11-17T20:10:50.758Z,2.70
2017-11-17T20:13:23.368Z,2.70
2017-11-17T20:15:51.317Z,2.60
2017-11-17T20:18:19.280Z,2.60
2017-11-17T20:20:47.243Z,2.60
2017-11-17T20:23:15.899Z,2.40
2017-11-17T20:25:43.821Z,2.40
2017-11-17T20:28:11.911Z,2.30
2017-11-17T20:30:39.896Z,2.20
2017-11-17T20:33:08.667Z,2.10
2017-11-17T20:35:36.608Z,2.00
2017-11-17T20:38:06.069Z,1.90
2017-11-17T20:40:34.877Z,1.80
2017-11-17T20:43:02.983Z,1.70
2017-11-17T20:45:30.882Z,1.70
2017-11-17T20:47:58.862Z,1.80
2017-11-17T20:50:26.855Z,2.00
2017-11-17T20:52:57.142Z,1.80
2017-11-17T20:55:27.040Z,1.80
2017-11-17T20:57:55.053Z,1.90
2017-11-17T21:00:22.968Z,2.00
2017-11-17T21:02:51.158Z,2.10
2017-11-17T21:05:19.070Z,2.20
2017-11-17T21:07:47.033Z,2.10
2017-11-17T21:10:14.944Z,2.00
2017-11-17T21:12:42.896Z,2.00
2017-11-17T21:15:10.794Z,2.00
2017-11-17T21:17:38.734Z,1.90
2017-11-17T21:20:06.629Z,1.80
2017-11-17T21:22:34.614Z,1.90
2017-11-17T21:25:02.552Z,2.00
2017-11-17T21:27:31.282Z,1.80
2017-11-17T21:29:59.191Z,1.80
2017-11-17T21:32:27.302Z,1.80
2017-11-17T21:34:55.225Z,1.80
2017-11-17T21:37:23.210Z,1.80
2017-11-17T21:39:51.171Z,1.80
2017-11-17T21:42:19.133Z,1.80
2017-11-17T21:44:47.104Z,2.00
2017-11-17T21:47:15.032Z,1.90
2017-11-17T21:49:43.008Z,1.60
2017-11-17T21:52:10.975Z,2.00
2017-11-17T21:54:38.957Z,2.00
2017-11-17T21:57:06.894Z,2.00
2017-11-17T21:59:35.620Z,1.80
2017-11-17T22:02:03.693Z,1.80
2017-11-17T22:04:31.667Z,1.80
2017-11-17T22:06:59.598Z,1.80
2017-11-17T22:09:27.578Z,1.80
2017-11-17T22:11:55.496Z,1.70
2017-11-17T22:14:23.485Z,1.60
2017-11-17T22:16:52.347Z,1.60
2017-11-17T22:19:20.315Z,1.60
2017-11-17T22:21:48.240Z,1.60
2017-11-17T22:24:16.230Z,1.60
2017-11-17T22:26:44.144Z,1.60
2017-11-17T22:29:12.239Z,1.60
2017-11-17T22:31:40.906Z,1.50
2017-11-17T22:34:08.883Z,1.50
2017-11-17T22:36:36.810Z,1.50
2017-11-17T22:39:04.844Z,1.40
2017-11-17T22:41:33.410Z,1.30
2017-11-17T22:44:02.135Z,1.40
2017-11-17T22:46:30.096Z,1.40
2017-11-17T22:48:58.010Z,1.40
2017-11-17T22:51:25.987Z,1.40
2017-11-17T22:53:54.073Z,1.50
2017-11-17T22:56:27.702Z,1.40
2017-11-17T22:58:55.926Z,1.50
2017-11-17T23:01:23.859Z,1.50
2017-11-17T23:03:51.798Z,1.50
2017-11-17T23:06:19.771Z,1.50
2017-11-17T23:08:49.258Z,1.80
2017-11-17T23:11:17.365Z,1.70
2017-11-17T23:13:46.527Z,1.70
2017-11-17T23:16:14.496Z,1.80
2017-11-17T23:18:42.403Z,1.70
2017-11-17T23:21:10.386Z,1.70
2017-11-17T23:23:51.115Z,1.60
2017-11-17T23:26:19.139Z,1.50
2017-11-17T23:28:47.102Z,1.50
2017-11-17T23:31:15.062Z,1.60
2017-11-17T23:33:42.970Z,1.60
2017-11-17T23:36:10.960Z,1.60
2017-11-17T23:38:38.876Z,1.50
2017-11-17T23:41:06.896Z,1.50
2017-11-17T23:43:34.881Z,1.40
2017-11-17T23:46:03.625Z,1.50
2017-11-17T23:48:31.545Z,1.50
2017-11-17T23:50:59.561Z,1.40
2017-11-17T23:53:28.784Z,1.30
2017-11-17T23:55:56.811Z,1.40
2017-11-17T23:58:31.461Z,1.40
